Time;durP1;ratioP1;P1;durP2;ratioP2;P2;SDS_P1;SDS_P2;PMS_P1;PMS_P2;Temp;Humidity;BMP_temperature;BMP_pressure;BME280_temperature;BME280_humidity;BME280_pressure;Samples;Min_cycle;Max_cycle;Signal;HPM_P1;HPM_P2
2023/04/21 00:01:12;;;;;;;25.02;15.20;;;;;;;10.19;100.00;101529.78;5036168;28;20056;-73
2023/04/21 00:03:40;;;;;;;22.65;15.43;;;;;;;10.16;100.00;101527.41;5036409;28;20044;-73
2023/04/21 00:06:08;;;;;;;24.98;15.05;;;;;;;10.14;100.00;101518.84;5035232;28;20107;-74
2023/04/21 00:08:41;;;;;;;21.45;14.18;;;;;;;10.16;100.00;101523.00;5043550;28;20048;-73
2023/04/21 00:11:08;;;;;;;24.95;15.30;;;;;;;10.16;100.00;101523.00;5029161;28;20114;-73
2023/04/21 00:13:35;;;;;;;24.25;16.42;;;;;;;10.16;100.00;101519.56;5023847;28;20128;-73
2023/04/21 00:16:02;;;;;;;23.50;15.13;;;;;;;10.14;100.00;101513.59;5018882;28;20060;-72
2023/04/21 00:18:29;;;;;;;25.67;16.90;;;;;;;10.14;100.00;101513.59;5029416;28;20489;-72
2023/04/21 00:20:55;;;;;;;29.75;17.55;;;;;;;10.13;100.00;101507.50;5043311;28;20162;-72
2023/04/21 00:23:22;;;;;;;25.55;16.55;;;;;;;10.14;100.00;101511.00;5034549;28;20052;-72
2023/04/21 00:25:48;;;;;;;25.08;16.45;;;;;;;10.12;100.00;101502.41;5046031;28;20059;-72
2023/04/21 00:28:15;;;;;;;24.67;16.23;;;;;;;10.10;100.00;101497.28;5037888;28;20049;-71
2023/04/21 00:30:41;;;;;;;28.58;16.30;;;;;;;10.11;100.00;101491.06;5041448;28;20059;-71
2023/04/21 00:33:07;;;;;;;24.55;15.85;;;;;;;10.14;100.00;101487.38;5041377;28;20052;-72
2023/04/21 00:35:34;;;;;;;25.98;16.45;;;;;;;10.05;100.00;101470.63;5025345;28;20102;-72
2023/04/21 00:38:01;;;;;;;27.00;16.98;;;;;;;10.08;100.00;101475.63;5046704;28;20469;-72
2023/04/21 00:40:27;;;;;;;29.10;16.20;;;;;;;10.07;100.00;101481.81;5020427;28;20049;-72
2023/04/21 00:42:54;;;;;;;25.65;17.02;;;;;;;10.04;100.00;101484.69;5047621;28;20048;-73
2023/04/21 00:45:20;;;;;;;28.58;17.70;;;;;;;9.99;100.00;101474.56;5032935;28;20074;-71
2023/04/21 00:47:47;;;;;;;27.75;17.30;;;;;;;9.98;100.00;101466.88;5044092;28;20053;-72
2023/04/21 00:50:13;;;;;;;27.95;17.55;;;;;;;9.98;100.00;101474.72;5046778;28;20300;-71
2023/04/21 00:52:42;;;;;;;30.35;17.05;;;;;;;9.99;100.00;101473.75;5038509;28;20559;-72
2023/04/21 00:55:09;;;;;;;28.40;18.30;;;;;;;10.00;100.00;101465.78;5034951;28;20525;-71
2023/04/21 00:57:39;;;;;;;27.77;17.58;;;;;;;9.99;100.00;101460.66;5031700;28;20528;-71
2023/04/21 01:00:07;;;;;;;26.95;17.52;;;;;;;9.97;100.00;101460.78;5039101;28;20048;-71
2023/04/21 01:02:36;;;;;;;22.27;15.48;;;;;;;10.03;100.00;101459.44;5045037;28;20478;-72
2023/04/21 01:05:07;;;;;;;22.98;14.93;;;;;;;10.04;100.00;101455.88;5018863;28;20052;-71
2023/04/21 01:07:35;;;;;;;30.38;18.08;;;;;;;10.08;100.00;101455.47;5045511;28;20318;-72
2023/04/21 01:10:02;;;;;;;31.17;19.65;;;;;;;10.08;100.00;101449.41;5031363;28;20053;-72
2023/04/21 01:12:29;;;;;;;21.08;13.82;;;;;;;10.07;100.00;101448.59;5037683;28;20486;-72
2023/04/21 01:14:56;;;;;;;27.52;17.73;;;;;;;10.05;100.00;101445.22;5032971;28;20056;-72
2023/04/21 01:17:22;;;;;;;29.42;17.95;;;;;;;10.05;100.00;101447.03;5044821;28;20053;-72
2023/04/21 01:19:50;;;;;;;30.83;19.67;;;;;;;10.00;100.00;101439.56;5044745;28;20052;-71
2023/04/21 01:22:17;;;;;;;27.47;19.50;;;;;;;9.99;100.00;101437.88;5037112;28;20140;-71
2023/04/21 01:24:47;;;;;;;28.02;18.73;;;;;;;9.99;100.00;101437.88;5031852;28;20104;-71
2023/04/21 01:27:18;;;;;;;28.95;18.73;;;;;;;9.98;100.00;101427.56;5011247;28;20160;-71
2023/04/21 01:29:48;;;;;;;27.83;18.70;;;;;;;9.98;100.00;101431.00;5039362;28;20055;-71
2023/04/21 01:32:18;;;;;;;30.27;19.30;;;;;;;10.01;100.00;101437.75;5039091;28;20057;-72
2023/04/21 01:34:45;;;;;;;30.20;19.35;;;;;;;10.01;100.00;101435.97;5044772;28;20099;-72
2023/04/21 01:37:14;;;;;;;30.83;19.65;;;;;;;10.02;100.00;101432.41;5042282;28;20053;-70
2023/04/21 01:39:44;;;;;;;28.75;18.20;;;;;;;10.02;100.00;101439.44;5042474;28;20045;-72
2023/04/21 01:42:11;;;;;;;29.50;19.45;;;;;;;10.00;100.00;101436.13;5038329;28;20052;-71
2023/04/21 01:44:38;;;;;;;29.13;18.55;;;;;;;10.01;100.00;101445.63;5037388;28;20148;-71
2023/04/21 01:47:05;;;;;;;30.10;19.00;;;;;;;9.97;100.00;101446.84;5040525;28;20068;-73
2023/04/21 01:49:32;;;;;;;31.50;20.50;;;;;;;9.92;100.00;101438.50;5030578;28;20632;-70
2023/04/21 01:51:58;;;;;;;32.85;20.17;;;;;;;9.89;100.00;101440.44;5046318;28;20425;-70
2023/04/21 01:54:25;;;;;;;30.55;19.40;;;;;;;9.87;100.00;101449.38;5039404;28;20136;-72
2023/04/21 01:56:51;;;;;;;29.55;19.70;;;;;;;9.85;100.00;101453.94;5031989;28;20508;-70
2023/04/21 01:59:18;;;;;;;32.53;19.85;;;;;;;9.87;100.00;101436.28;5025236;28;20520;-71
2023/04/21 02:01:45;;;;;;;30.05;19.00;;;;;;;9.89;100.00;101434.38;5041315;28;20053;-70
2023/04/21 02:04:11;;;;;;;30.83;19.00;;;;;;;9.88;100.00;101425.69;5043093;28;20136;-70
2023/04/21 02:06:38;;;;;;;29.73;19.23;;;;;;;9.85;100.00;101428.53;5012345;28;20111;-70
2023/04/21 02:09:04;;;;;;;30.98;18.92;;;;;;;9.86;100.00;101424.16;5037452;28;20055;-70
2023/04/21 02:11:31;;;;;;;28.60;19.85;;;;;;;9.87;100.00;101418.75;5038722;28;20952;-70
2023/04/21 02:13:57;;;;;;;26.52;17.75;;;;;;;9.85;100.00;101425.91;5035856;28;20367;-71
2023/04/21 02:16:26;;;;;;;26.27;18.77;;;;;;;9.86;100.00;101426.78;5043769;28;20434;-70
2023/04/21 02:18:55;;;;;;;28.92;19.02;;;;;;;9.87;100.00;101425.81;5038981;28;20566;-70
2023/04/21 02:21:23;;;;;;;26.48;17.90;;;;;;;9.86;100.00;101430.22;5044306;28;20542;-70
2023/04/21 02:23:51;;;;;;;30.33;18.40;;;;;;;9.87;100.00;101433.66;5031070;28;20222;-70
2023/04/21 02:26:18;;;;;;;28.42;18.65;;;;;;;9.85;100.00;101423.31;5038036;28;20056;-70
2023/04/21 02:28:44;;;;;;;28.20;18.70;;;;;;;9.85;100.00;101422.47;5041930;28;20500;-70
2023/04/21 02:31:11;;;;;;;26.52;16.23;;;;;;;9.88;100.00;101414.38;5016709;28;20057;-70
2023/04/21 02:33:37;;;;;;;26.88;18.70;;;;;;;9.89;100.00;101402.91;5043549;28;20309;-70
2023/04/21 02:36:04;;;;;;;23.98;16.35;;;;;;;9.93;100.00;101404.31;5035899;28;20174;-70
2023/04/21 02:38:31;;;;;;;23.95;16.50;;;;;;;9.96;100.00;101404.09;5037926;28;20483;-70
2023/04/21 02:40:57;;;;;;;24.25;16.90;;;;;;;9.98;100.00;101403.97;5021026;28;20109;-70
2023/04/21 02:43:24;;;;;;;25.73;17.52;;;;;;;9.96;100.00;101404.09;5013069;28;20159;-70
2023/04/21 02:45:51;;;;;;;25.27;17.25;;;;;;;9.95;100.00;101396.34;5039152;28;20053;-71
2023/04/21 02:48:21;;;;;;;25.85;18.02;;;;;;;9.96;100.00;101401.47;5035179;28;20110;-69
2023/04/21 02:50:49;;;;;;;25.27;17.70;;;;;;;9.96;100.00;101416.34;5034022;28;20057;-70
2023/04/21 02:53:16;;;;;;;27.23;17.73;;;;;;;9.90;100.00;101421.16;5029446;28;20277;-70
2023/04/21 02:55:42;;;;;;;24.55;17.17;;;;;;;9.96;100.00;101425.06;5022781;28;20499;-71
2023/04/21 02:58:09;;;;;;;27.42;19.15;;;;;;;9.93;100.00;101404.31;5024365;28;20421;-70
2023/04/21 03:00:36;;;;;;;25.23;17.58;;;;;;;9.92;100.00;101407.91;5036032;28;20056;-69
2023/04/21 03:03:03;;;;;;;27.67;17.90;;;;;;;9.88;100.00;101389.00;5040151;28;20057;-66
2023/04/21 03:05:30;;;;;;;27.23;17.88;;;;;;;9.90;100.00;101396.75;5033188;28;20300;-69
2023/04/21 03:07:56;;;;;;;25.50;17.85;;;;;;;9.88;100.00;101394.25;5035537;28;20582;-69
2023/04/21 03:10:23;;;;;;;26.98;18.10;;;;;;;9.87;100.00;101407.47;5042070;28;20489;-70
2023/04/21 03:12:50;;;;;;;22.63;16.73;;;;;;;9.89;100.00;101411.59;5035601;28;20053;-70
2023/04/21 03:15:16;;;;;;;26.65;17.98;;;;;;;9.87;100.00;101394.34;5042379;28;20057;-69
2023/04/21 03:17:43;;;;;;;23.85;17.55;;;;;;;9.87;100.00;101395.19;5037263;28;20065;-69
2023/04/21 03:20:11;;;;;;;27.33;18.83;;;;;;;9.86;100.00;101392.72;5041093;28;20434;-69
2023/04/21 03:22:38;;;;;;;25.88;18.33;;;;;;;9.86;100.00;101397.97;5012942;28;20573;-70
2023/04/21 03:25:06;;;;;;;26.42;18.73;;;;;;;9.85;100.00;101391.03;5042506;28;20088;-69
2023/04/21 03:27:33;;;;;;;26.55;18.40;;;;;;;9.85;100.00;101391.84;5043008;28;20059;-69
2023/04/21 03:30:00;;;;;;;25.33;17.92;;;;;;;9.83;100.00;101385.91;5032877;28;20049;-69
2023/04/21 03:32:26;;;;;;;29.17;20.27;;;;;;;9.82;100.00;101386.91;5042199;28;20053;-68
2023/04/21 03:34:53;;;;;;;30.02;20.55;;;;;;;9.87;100.00;101387.31;5031185;28;20498;-68
2023/04/21 03:37:20;;;;;;;27.30;19.55;;;;;;;9.90;100.00;101384.47;5037827;28;20086;-68
2023/04/21 03:39:46;;;;;;;27.98;19.52;;;;;;;9.89;100.00;101377.53;5035207;28;20049;-68
2023/04/21 03:42:13;;;;;;;29.15;20.30;;;;;;;9.87;100.00;101389.13;5041949;28;20056;-68
2023/04/21 03:44:39;;;;;;;30.45;19.95;;;;;;;9.88;100.00;101380.31;5051057;28;20438;-70
2023/04/21 03:47:05;;;;;;;27.90;19.48;;;;;;;9.88;100.00;101385.56;5024044;28;20057;-68
2023/04/21 03:49:35;;;;;;;28.85;20.08;;;;;;;9.90;100.00;101387.06;5018753;28;20135;-71
2023/04/21 03:52:02;;;;;;;27.45;19.77;;;;;;;9.90;100.00;101379.22;5032823;28;20053;-68
2023/04/21 03:54:28;;;;;;;27.48;19.42;;;;;;;9.90;100.00;101384.47;5034814;28;20056;-68
2023/04/21 03:56:55;;;;;;;29.88;19.85;;;;;;;9.92;100.00;101386.09;5042343;28;20059;-68
2023/04/21 03:59:21;;;;;;;29.08;20.70;;;;;;;9.92;100.00;101388.72;5030213;28;20045;-69
2023/04/21 04:01:48;;;;;;;23.65;16.85;;;;;;;9.90;100.00;101384.47;5045079;28;20256;-68
2023/04/21 04:04:14;;;;;;;28.38;19.63;;;;;;;9.89;100.00;101388.03;5035436;28;20440;-68
2023/04/21 04:06:41;;;;;;;27.80;20.13;;;;;;;9.91;100.00;101374.81;5046863;28;20559;-70
2023/04/21 04:09:07;;;;;;;29.20;20.08;;;;;;;9.94;100.00;101371.94;5039143;28;20547;-67
2023/04/21 04:11:34;;;;;;;31.23;21.33;;;;;;;9.94;100.00;101376.31;5046199;28;20061;-68
2023/04/21 04:14:01;;;;;;;27.83;19.85;;;;;;;9.95;100.00;101381.44;5046284;28;20056;-70
2023/04/21 04:16:28;;;;;;;32.13;22.08;;;;;;;9.98;100.00;101380.38;5027125;28;20515;-68
2023/04/21 04:18:55;;;;;;;27.48;18.45;;;;;;;10.00;100.00;101375.84;5043788;28;20512;-68
2023/04/21 04:21:21;;;;;;;31.27;20.77;;;;;;;9.98;100.00;101375.13;5037973;28;20135;-68
2023/04/21 04:23:50;;;;;;;32.75;23.65;;;;;;;10.00;100.00;101375.84;5045998;28;20067;-68
2023/04/21 04:26:17;;;;;;;30.58;21.75;;;;;;;10.01;100.00;101369.63;5036719;28;20080;-69
2023/04/21 04:28:44;;;;;;;30.42;20.33;;;;;;;9.98;100.00;101364.66;5041506;28;20342;-70
2023/04/21 04:31:13;;;;;;;35.63;23.92;;;;;;;9.94;100.00;101360.59;5033674;28;20056;-70
2023/04/21 04:33:41;;;;;;;30.77;20.52;;;;;;;9.93;100.00;101358.94;5037597;28;20559;-69
2023/04/21 04:36:08;;;;;;;38.00;24.67;;;;;;;9.92;100.00;101365.13;5046933;28;20052;-68
2023/04/21 04:38:36;;;;;;;32.70;23.25;;;;;;;9.92;100.00;101355.50;5020229;28;20052;-69
2023/04/21 04:41:03;;;;;;;32.22;22.45;;;;;;;9.88;100.00;101362.78;5047083;28;20124;-68
2023/04/21 04:43:32;;;;;;;29.67;21.10;;;;;;;9.90;100.00;101367.91;5029969;28;20783;-69
2023/04/21 04:45:59;;;;;;;36.33;23.48;;;;;;;9.92;100.00;101366.00;5041128;28;20053;-69
2023/04/21 04:48:25;;;;;;;35.25;24.02;;;;;;;9.90;100.00;101362.66;5044910;28;20056;-68
2023/04/21 04:50:52;;;;;;;34.28;23.42;;;;;;;9.88;100.00;101362.78;5038196;28;20135;-69
2023/04/21 04:53:18;;;;;;;34.58;22.98;;;;;;;9.89;100.00;101359.19;5046039;28;20052;-68
2023/04/21 04:55:46;;;;;;;33.78;21.77;;;;;;;9.94;100.00;101360.59;5037059;28;20045;-69
2023/04/21 04:58:12;;;;;;;34.38;24.38;;;;;;;9.93;100.00;101366.81;5033176;28;20068;-69
2023/04/21 05:00:39;;;;;;;32.33;22.55;;;;;;;9.92;100.00;101370.38;5033397;28;20402;-68
2023/04/21 05:03:05;;;;;;;34.47;23.77;;;;;;;9.92;100.00;101371.22;5036704;28;20493;-67
2023/04/21 05:05:32;;;;;;;35.67;24.10;;;;;;;9.97;100.00;101378.69;5045256;28;20059;-67
2023/04/21 05:07:58;;;;;;;34.00;23.10;;;;;;;9.96;100.00;101377.88;5037802;28;20082;-67
2023/04/21 05:10:25;;;;;;;25.67;17.45;;;;;;;10.01;100.00;101385.34;5043644;28;20055;-67
2023/04/21 05:12:51;;;;;;;36.95;22.83;;;;;;;10.01;100.00;101369.63;5036464;28;20045;-68
2023/04/21 05:15:18;;;;;;;32.70;22.95;;;;;;;9.99;100.00;101364.50;5045025;28;20386;-67
2023/04/21 05:17:44;;;;;;;31.17;21.13;;;;;;;10.03;100.00;101371.13;5045699;28;20057;-67
2023/04/21 05:20:11;;;;;;;33.22;23.02;;;;;;;10.03;100.00;101370.31;5037485;28;20049;-69
2023/04/21 05:22:37;;;;;;;37.88;23.95;;;;;;;10.06;100.00;101377.94;5041499;28;20045;-67
2023/04/21 05:25:05;;;;;;;31.25;21.33;;;;;;;10.07;100.00;101388.28;5035031;28;20491;-70
2023/04/21 05:27:32;;;;;;;34.05;23.17;;;;;;;10.06;100.00;101393.66;5046214;28;20056;-67
2023/04/21 05:29:59;;;;;;;33.13;23.55;;;;;;;10.07;100.00;101403.16;5021429;28;20489;-68
2023/04/21 05:32:26;;;;;;;31.58;21.02;;;;;;;10.05;100.00;101394.59;5053297;28;20049;-67
2023/04/21 05:34:52;;;;;;;28.77;20.25;;;;;;;10.05;100.00;101394.59;5061438;28;20053;-68
2023/04/21 05:37:19;;;;;;;31.27;22.05;;;;;;;10.12;100.00;101405.44;5020534;28;20068;-69
2023/04/21 05:39:45;;;;;;;33.00;23.02;;;;;;;10.03;100.00;101407.00;5039288;28;20053;-67
2023/04/21 05:42:12;;;;;;;34.63;23.67;;;;;;;10.05;100.00;101405.09;5036005;28;20417;-67
2023/04/21 05:44:38;;;;;;;34.65;21.63;;;;;;;10.07;100.00;101411.03;5018618;28;20512;-68
2023/04/21 05:47:05;;;;;;;32.70;22.85;;;;;;;10.03;100.00;101407.84;5035447;28;20080;-69
2023/04/21 05:49:31;;;;;;;28.92;20.52;;;;;;;10.09;100.00;101402.09;5043963;28;20055;-67
2023/04/21 05:51:58;;;;;;;31.27;22.10;;;;;;;10.14;100.00;101406.13;5035683;28;20477;-67
2023/04/21 05:54:24;;;;;;;27.95;21.05;;;;;;;10.16;100.00;101401.59;5032454;28;20059;-69
2023/04/21 05:56:51;;;;;;;29.75;21.63;;;;;;;10.21;100.00;101404.63;5043881;28;20555;-68
2023/04/21 05:59:17;;;;;;;30.70;21.05;;;;;;;10.22;100.00;101409.75;5036132;28;20048;-68
2023/04/21 06:01:44;;;;;;;28.02;18.88;;;;;;;10.26;100.00;101413.78;5025483;28;20508;-67
2023/04/21 06:04:10;;;;;;;26.23;18.73;;;;;;;10.26;100.00;101407.72;5034836;28;20064;-71
2023/04/21 06:06:37;;;;;;;28.73;20.60;;;;;;;10.27;100.00;101402.34;5032766;28;20096;-67
2023/04/21 06:09:04;;;;;;;32.90;21.95;;;;;;;10.29;100.00;101400.41;5042643;28;20476;-68
2023/04/21 06:11:32;;;;;;;32.05;20.58;;;;;;;10.27;100.00;101411.97;5036291;28;20056;-68
2023/04/21 06:13:58;;;;;;;29.65;19.42;;;;;;;10.29;100.00;101397.78;5042543;28;20429;-67
2023/04/21 06:16:25;;;;;;;28.55;21.63;;;;;;;10.36;100.00;101399.91;5036818;28;20059;-68
2023/04/21 06:18:52;;;;;;;32.10;22.25;;;;;;;10.38;100.00;101396.19;5039237;28;20044;-68
2023/04/21 06:21:19;;;;;;;30.27;20.10;;;;;;;10.39;100.00;101383.91;5040517;28;20049;-68
2023/04/21 06:23:45;;;;;;;29.60;20.52;;;;;;;10.44;100.00;101393.03;5036407;28;20045;-67
2023/04/21 06:26:12;;;;;;;26.45;18.13;;;;;;;10.48;100.00;101397.06;5043771;28;20057;-68
2023/04/21 06:28:39;;;;;;;29.33;21.00;;;;;;;10.55;100.00;101392.13;5033071;28;20131;-68
2023/04/21 06:31:05;;;;;;;30.83;20.60;;;;;;;10.57;100.00;101392.84;5042575;28;20106;-68
2023/04/21 06:33:34;;;;;;;27.85;20.45;;;;;;;10.60;100.00;101391.72;5035600;28;21074;-68
2023/04/21 06:36:01;;;;;;;27.50;18.88;;;;;;;10.61;100.00;101383.72;5037925;28;20089;-67
2023/04/21 06:38:27;;;;;;;29.60;20.95;;;;;;;10.66;100.00;101386.81;5043205;28;20124;-67
2023/04/21 06:40:54;;;;;;;28.83;20.60;;;;;;;10.72;100.00;101388.03;5017848;28;20094;-67
2023/04/21 06:43:21;;;;;;;25.48;18.90;;;;;;;10.79;100.00;101390.97;5039673;28;20052;-68
2023/04/21 06:45:47;;;;;;;27.73;19.67;;;;;;;10.82;100.00;101393.31;5030943;28;20048;-70
2023/04/21 06:48:14;;;;;;;25.90;19.25;;;;;;;10.88;100.00;101391.00;5036787;28;20577;-67
2023/04/21 06:50:43;;;;;;;31.15;22.25;;;;;;;10.88;100.00;101384.94;5033964;28;20533;-68
2023/04/21 06:53:10;;;;;;;30.60;21.65;;;;;;;10.93;100.00;101385.34;5040795;28;20140;-67
2023/04/21 06:55:37;;;;;;;28.50;20.40;;;;;;;10.94;100.00;101383.53;5027331;28;20049;-67
2023/04/21 06:58:03;;;;;;;29.98;22.33;;;;;;;10.98;100.00;101385.78;5037192;28;20053;-68
2023/04/21 07:00:30;;;;;;;31.23;21.58;;;;;;;10.99;100.00;101381.34;5042715;28;20367;-67
2023/04/21 07:02:56;;;;;;;29.77;19.98;;;;;;;11.07;100.00;101395.47;5031044;28;20135;-67
2023/04/21 07:05:23;;;;;;;28.23;20.20;;;;;;;11.06;100.00;101385.91;5044293;28;20153;-67
2023/04/21 07:07:49;;;;;;;32.08;21.58;;;;;;;11.11;100.00;101387.31;5025890;28;20116;-68
2023/04/21 07:10:18;;;;;;;30.60;21.00;;;;;;;11.08;100.00;101393.66;5036136;28;20482;-68
2023/04/21 07:12:45;;;;;;;28.08;20.10;;;;;;;11.10;100.00;101393.53;5045411;28;20053;-68
2023/04/21 07:15:12;;;;;;;40.00;24.95;;;;;;;11.05;100.00;101402.66;5037628;28;20059;-70
2023/04/21 07:17:38;;;;;;;31.27;23.80;;;;;;;11.02;100.00;101392.41;5041242;28;20458;-69
2023/04/21 07:20:06;;;;;;;30.35;21.67;;;;;;;11.07;100.00;101405.13;5036825;28;20060;-69
2023/04/21 07:22:33;;;;;;;32.95;22.00;;;;;;;11.05;100.00;101404.44;5043752;28;20162;-68
2023/04/21 07:25:06;;;;;;;34.17;24.20;;;;;;;11.10;100.00;101402.25;5044981;28;20056;-69
2023/04/21 07:27:35;;;;;;;31.70;22.15;;;;;;;11.14;100.00;101394.94;5037495;28;20064;-69
2023/04/21 07:30:03;;;;;;;33.40;23.10;;;;;;;11.20;100.00;101395.19;5042118;28;20486;-67
2023/04/21 07:32:30;;;;;;;32.40;23.27;;;;;;;11.21;100.00;101394.25;5032440;28;20513;-70
2023/04/21 07:34:57;;;;;;;32.40;23.10;;;;;;;11.23;100.00;101401.97;5049027;28;20551;-67
2023/04/21 07:37:24;;;;;;;28.23;20.67;;;;;;;11.26;100.00;101384.13;5021359;28;20483;-70
2023/04/21 07:39:50;;;;;;;31.85;22.15;;;;;;;11.31;100.00;101391.63;5048406;28;20099;-70
2023/04/21 07:42:17;;;;;;;33.35;24.20;;;;;;;11.34;100.00;101383.47;5047051;28;20052;-70
2023/04/21 07:44:43;;;;;;;33.80;24.90;;;;;;;11.45;100.00;101398.28;5033730;28;20258;-69
2023/04/21 07:47:10;;;;;;;28.05;19.15;;;;;;;11.52;100.00;101401.97;5046870;28;20089;-70
2023/04/21 07:49:36;;;;;;;32.05;23.67;;;;;;;11.62;100.00;101392.31;5041621;28;20056;-70
2023/04/21 07:52:03;;;;;;;28.00;20.38;;;;;;;11.68;100.00;101388.28;5051444;28;20166;-69
2023/04/21 07:54:30;;;;;;;33.08;23.55;;;;;;;11.79;100.00;101385.50;5045286;28;20053;-69
2023/04/21 07:56:57;;;;;;;36.20;24.05;;;;;;;11.86;100.00;101386.63;5042726;28;20433;-69
2023/04/21 07:59:23;;;;;;;27.45;20.63;;;;;;;12.02;100.00;101390.50;5043459;28;20049;-69
2023/04/21 08:01:50;;;;;;;27.95;21.65;;;;;;;12.00;100.00;101385.38;5040045;28;20049;-69
2023/04/21 08:04:17;;;;;;;30.20;21.63;;;;;;;12.13;100.00;101384.22;5047844;28;20072;-70
2023/04/21 08:06:44;;;;;;;31.58;23.13;;;;;;;12.20;100.00;101375.63;5041111;28;20872;-70
2023/04/21 08:09:11;;;;;;;29.52;21.40;;;;;;;12.36;100.00;101384.72;5030594;28;20060;-72
2023/04/21 08:11:37;;;;;;;26.65;20.00;;;;;;;12.50;100.00;101383.41;5041169;28;20052;-69
2023/04/21 08:14:04;;;;;;;32.58;23.50;;;;;;;12.62;100.00;101374.34;5042397;28;20052;-69
2023/04/21 08:16:30;;;;;;;30.52;23.20;;;;;;;12.78;100.00;101381.59;5048071;28;20630;-69
2023/04/21 08:18:57;;;;;;;32.38;22.50;;;;;;;12.96;100.00;101379.84;5022598;28;20067;-70
2023/04/21 08:21:24;;;;;;;32.38;23.42;;;;;;;13.06;100.00;101388.50;5047176;28;20494;-70
2023/04/21 08:23:50;;;;;;;33.63;24.45;;;;;;;13.24;100.00;101380.63;5040798;28;20055;-68
2023/04/21 08:26:20;;;;;;;29.73;22.40;;;;;;;13.37;100.00;101382.09;5042657;28;20087;-67
2023/04/21 08:28:48;;;;;;;32.78;23.90;;;;;;;13.53;100.00;101381.41;5039106;28;20067;-67
2023/04/21 08:31:16;;;;;;;30.73;23.73;;;;;;;13.52;100.00;101393.72;5046675;28;20132;-69
2023/04/21 08:33:42;;;;;;;30.08;22.33;;;;;;;13.48;100.00;101386.28;5047609;28;20497;-68
2023/04/21 08:36:27;;;;;;;31.38;23.48;;;;;;;13.47;100.00;101389.94;5040570;28;20081;-67
2023/04/21 08:38:55;;;;;;;28.20;20.60;;;;;;;13.51;100.00;101383.38;5042462;28;20369;-68
2023/04/21 08:41:23;;;;;;;34.97;25.13;;;;;;;13.55;100.00;101380.25;5014599;28;20060;-67
2023/04/21 08:43:50;;;;;;;28.05;20.77;;;;;;;13.59;100.00;101391.34;5030140;28;20099;-70
2023/04/21 08:46:17;;;;;;;32.13;21.63;;;;;;;13.59;100.00;101381.63;5020995;28;20052;-69
2023/04/21 08:48:45;;;;;;;31.00;23.20;;;;;;;13.70;100.00;101385.84;5029689;28;20099;-67
2023/04/21 08:51:16;;;;;;;30.60;23.07;;;;;;;13.82;100.00;101389.06;5046947;28;20107;-68
2023/04/21 08:53:43;;;;;;;30.73;22.23;;;;;;;13.99;100.00;101392.63;5035778;28;20072;-68
2023/04/21 08:56:10;;;;;;;31.67;22.90;;;;;;;13.98;100.00;101377.78;5041922;28;20065;-67
2023/04/21 08:58:37;;;;;;;34.67;23.55;;;;;;;14.08;100.00;101383.78;5040273;28;20501;-69
2023/04/21 09:01:04;;;;;;;31.50;23.17;;;;;;;14.14;100.00;101383.16;5046992;28;20045;-67
2023/04/21 09:03:31;;;;;;;30.00;23.23;;;;;;;14.23;100.00;101376.94;5038983;28;20057;-67
2023/04/21 09:06:05;;;;;;;30.70;22.88;;;;;;;14.26;100.00;101377.63;5045072;28;20057;-67
2023/04/21 09:08:35;;;;;;;30.67;22.30;;;;;;;14.19;100.00;101372.97;5042575;28;20266;-68
2023/04/21 09:11:02;;;;;;;28.13;21.20;;;;;;;14.28;100.00;101386.19;5016846;28;20407;-68
2023/04/21 09:13:35;;;;;;;30.13;23.15;;;;;;;14.32;100.00;101388.34;5046597;28;20138;-68
2023/04/21 09:16:04;;;;;;;30.90;23.42;;;;;;;14.34;100.00;101380.28;5038813;28;20135;-68
2023/04/21 09:18:38;;;;;;;30.50;23.00;;;;;;;14.46;100.00;101383.47;5047107;28;20374;-68
2023/04/21 09:21:11;;;;;;;30.08;22.27;;;;;;;14.48;100.00;101377.06;5019002;28;20053;-68
2023/04/21 09:23:49;;;;;;;28.85;22.20;;;;;;;14.58;100.00;101380.44;5045915;28;20052;-68
2023/04/21 09:26:18;;;;;;;29.38;22.13;;;;;;;14.65;100.00;101372.69;5039496;28;20521;-69
2023/04/21 09:28:47;;;;;;;33.42;24.23;;;;;;;14.68;100.00;101372.41;5052423;28;20049;-69
2023/04/21 09:31:18;;;;;;;31.67;24.05;;;;;;;14.74;100.00;101361.19;5025760;28;20048;-68
2023/04/21 09:33:45;;;;;;;29.63;21.85;;;;;;;14.77;100.00;101366.13;5021139;28;20164;-68
2023/04/21 09:36:27;;;;;;;29.40;21.33;;;;;;;14.82;100.00;101368.31;5040682;28;20055;-70
2023/04/21 09:38:53;;;;;;;28.92;21.17;;;;;;;14.74;100.00;101371.75;5036185;28;20049;-68
2023/04/21 09:41:40;;;;;;;32.50;23.13;;;;;;;14.79;100.00;101368.63;5044203;28;20041;-68
2023/04/21 09:44:06;;;;;;;27.20;22.55;;;;;;;14.79;100.00;101373.91;5039495;28;20339;-68
2023/04/21 09:46:35;;;;;;;27.05;21.55;;;;;;;14.96;100.00;101366.84;5045681;28;20139;-68
2023/04/21 09:49:03;;;;;;;25.65;21.38;;;;;;;14.98;100.00;101372.81;5036139;28;20108;-70
2023/04/21 09:51:30;;;;;;;29.05;21.92;;;;;;;15.07;100.00;101369.16;5048564;28;20080;-69
2023/04/21 09:54:23;;;;;;;27.95;19.13;;;;;;;15.15;100.00;101369.22;5045863;28;20064;-69
2023/04/21 09:56:56;;;;;;;28.08;21.73;;;;;;;15.27;100.00;101369.72;5038149;28;20056;-68
2023/04/21 09:59:31;;;;;;;28.45;21.40;;;;;;;15.27;100.00;101363.59;5045566;28;20111;-68
2023/04/21 10:01:59;;;;;;;30.60;23.10;;;;;;;15.23;100.00;101358.63;5038005;28;20053;-68
2023/04/21 10:04:27;;;;;;;22.92;18.60;;;;;;;15.25;100.00;101353.19;5039994;28;20612;-68
2023/04/21 10:06:55;;;;;;;;;;;;;;;15.42;100.00;101354.81;5036466;28;20050;-69
2023/04/21 10:09:24;;;;;;;26.38;19.13;;;;;;;15.66;100.00;101353.19;5045582;28;20410;-68
2023/04/21 10:11:52;;;;;;;29.30;21.40;;;;;;;15.68;100.00;101353.00;5040708;28;20096;-69
2023/04/21 10:14:19;;;;;;;;;;;;;;;15.72;100.00;101344.59;5021832;28;20059;-69
2023/04/21 10:17:02;;;;;;;28.70;21.50;;;;;;;15.78;100.00;101343.13;5039955;28;20285;-68
2023/04/21 10:19:34;;;;;;;27.33;21.65;;;;;;;15.86;100.00;101343.09;5023752;28;20096;-67
2023/04/21 10:22:01;;;;;;;29.90;24.05;;;;;;;15.78;100.00;101349.25;5026903;28;20048;-69
2023/04/21 10:24:29;;;;;;;29.88;23.27;;;;;;;15.77;100.00;101346.75;5038771;28;20059;-68
2023/04/21 10:26:58;;;;;;;26.65;22.08;;;;;;;15.90;100.00;101340.97;5047622;28;20135;-72
2023/04/21 10:29:30;;;;;;;25.55;19.77;;;;;;;16.11;100.00;101348.31;5045451;28;20049;-72
2023/04/21 10:32:29;;;;;;;;;;;;;;;16.44;100.00;101343.75;5040119;28;20063;-69
2023/04/21 10:34:56;;;;;;;27.02;20.08;;;;;;;16.48;99.19;101339.75;5048252;28;19925;-71
2023/04/21 10:37:23;;;;;;;25.40;21.20;;;;;;;16.39;95.23;101330.22;5042031;28;20069;-71
2023/04/21 10:39:54;;;;;;;28.23;22.30;;;;;;;16.37;98.12;101345.44;5052682;28;20075;-71
2023/04/21 10:42:26;;;;;;;23.85;20.52;;;;;;;16.29;97.83;101346.28;5046342;28;20112;-70
2023/04/21 10:44:55;;;;;;;24.83;20.65;;;;;;;16.37;99.22;101343.63;5058289;28;20111;-71
2023/04/21 10:47:37;;;;;;;22.25;17.63;;;;;;;16.33;99.58;101333.56;5036989;28;20151;-69
2023/04/21 10:50:17;;;;;;;25.85;20.52;;;;;;;16.35;99.74;101324.44;5064018;28;20076;-68
2023/04/21 10:52:46;;;;;;;24.25;20.90;;;;;;;16.38;100.00;101312.66;5041631;28;20041;-68
2023/04/21 10:55:14;;;;;;;;;;;;;;;16.48;99.53;101318.56;5047939;28;20076;-69
2023/04/21 10:57:43;;;;;;;23.92;19.35;;;;;;;16.39;98.64;101319.63;5046844;28;20499;-68
2023/04/21 11:00:13;;;;;;;23.67;19.10;;;;;;;16.27;97.96;101318.31;5034549;28;20122;-71
2023/04/21 11:02:41;;;;;;;25.98;21.23;;;;;;;16.26;99.39;101322.81;5043174;28;20104;-69
2023/04/21 11:05:10;;;;;;;27.70;21.60;;;;;;;16.18;99.27;101318.38;5022208;28;20053;-67
2023/04/21 11:07:37;;;;;;;24.92;19.92;;;;;;;16.17;100.00;101316.72;5044096;28;20441;-68